Latest Weather Observations for Nerriga

IDN60801

Issued at 3:03 pm EDT Wednesday 1 April 2015 (issued every 30 minutes, with the page automatically refreshed every 10 minutes)

About weather observations | Map of weather stations | Latest weather observations for NSW | Other Formats
Station Details ID: 069128 Name: NERRIGA AWS Lat: -35.11 Lon: 150.08 Height: 622.0 m
Data from the previous 72 hours. | See also: Recent months at Nerriga
Date/Time
EDT
Temp
°C
App
Temp
°C
Dew
Point
Rel
Hum
%
Delta-T
°C
Wind Press
QNH
hPa
Press
MSL
hPa
Rain
since 9 am
mm
Dir
 
Spd
km/h
Gust
km/h
Spd
kts
Gust
kts
01/03:00pm 23.6 21.3 14.0 55 5.8 NE 19 24 10 13 1021.3 1020.4 0.0
01/02:30pm 23.7 21.3 13.8 53 5.9 N 19 24 10 13 1021.7 1020.8 0.0
01/02:00pm 22.4 20.6 13.2 56 5.4 N 15 24 8 13 1022.3 1021.4 0.0
01/01:30pm 23.2 20.8 13.7 55 5.7 N 19 30 10 16 1022.6 1021.7 0.0
01/01:00pm 22.3 20.1 14.4 61 4.8 N 19 28 10 15 1023.2 1022.4 0.0
01/12:30pm 21.4 19.5 14.1 63 4.4 N 17 28 9 15 1024.0 1023.1 0.0
01/12:00pm 19.6 18.9 14.4 72 3.1 N 11 19 6 10 1024.6 1023.8 0.0
01/11:30am 17.8 16.3 14.3 80 2.1 N 15 20 8 11 1025.1 1024.3 0.0
01/11:00am 17.5 16.9 14.6 83 1.7 N 11 17 6 9 1025.6 1024.7 0.0
01/10:30am 15.2 15.7 13.9 92 0.8 W 4 11 2 6 1026.0 1024.2 0.0
01/10:00am 13.3 12.8 12.7 96 0.3 SW 7 9 4 5 1026.4 1024.6 0.0
01/09:30am 13.8 14.2 13.6 99 0.1 S 4 6 2 3 1026.2 1024.4 0.0
01/09:00am 12.9 13.8 12.9 100 0.0 CALM 0 0 0 0 1026.2 1024.4 0.0
01/08:30am 11.4 11.8 11.4 100 0.0 CALM 0 0 0 0 1026.1 1024.3 0.0
01/08:00am 9.9 9.5 9.9 100 0.0 S 2 4 1 2 1025.8 1023.9 0.0
01/07:30am 8.5 7.4 8.5 100 0.0 SSE 4 6 2 3 1025.6 1023.7 0.0
01/07:00am 8.7 7.7 8.7 100 0.0 SSE 4 6 2 3 1025.5 1023.6 0.0
01/06:30am 8.3 6.7 8.2 99 0.0 SSE 6 6 3 3 1025.5 1023.6 0.0
01/06:00am 8.4 7.3 8.4 100 0.0 NE 4 6 2 3 1025.7 1023.8 0.0
01/05:30am 8.0 7.1 7.9 99 0.0 NE 2 4 1 2 1025.6 1023.7 0.0
01/05:00am 8.3 7.1 8.0 98 0.1 NE 4 6 2 3 1025.6 1023.7 0.0
01/04:30am 8.8 8.1 8.7 99 0.1 NE 2 4 1 2 1025.6 1023.7 0.0
01/04:00am 8.7 7.6 8.6 99 0.0 NE 4 6 2 3 1025.8 1023.9 0.0
01/03:30am 9.1 8.1 8.8 98 0.2 NE 4 6 2 3 1026.3 1024.5 0.0
01/03:00am 8.6 7.0 8.0 96 0.3 NE 6 6 3 3 1026.5 1024.7 0.0
01/02:30am 9.8 8.6 9.5 98 0.2 NE 6 6 3 3 1026.6 1024.8 0.0
01/02:00am 10.0 9.2 9.5 97 0.3 NE 4 4 2 2 1026.8 1025.0 0.0
01/01:30am 10.9 11.0 10.3 96 0.3 CALM 0 0 0 0 1026.9 1025.1 0.0
01/01:00am 12.0 12.5 11.5 97 0.3 CALM 0 0 0 0 1027.2 1025.3 0.0
01/12:30am 12.0 10.7 11.4 96 0.3 ENE 9 11 5 6 1027.3 1025.4 0.0
01/12:00am 12.7 12.5 11.8 94 0.5 ENE 4 6 2 3 1027.5 1025.7 0.0
 
Date/Time
EDT
Temp
°C
App
Temp
°C
Dew
Point
Rel
Hum
%
Delta-T
°C
Wind Press
QNH
hPa
Press
MSL
hPa
Rain
since 9 am
mm
Dir
 
Spd
km/h
Gust
km/h
Spd
kts
Gust
kts
31/11:30pm 13.0 13.5 11.6 91 0.8 CALM 0 0 0 0 1027.7 1025.9 0.0
31/11:00pm 13.6 13.5 12.0 90 0.9 ENE 4 6 2 3 1028.0 1026.2 0.0
31/10:30pm 14.0 12.3 12.6 91 0.8 ENE 13 17 7 9 1027.6 1025.8 0.0
31/10:00pm 14.2 13.0 12.9 92 0.7 ENE 11 15 6 8 1027.4 1025.6 0.0
31/09:30pm 14.7 14.0 13.1 90 0.9 NE 9 15 5 8 1027.7 1025.9 0.0
31/09:00pm 14.8 14.0 13.0 89 1.0 NE 9 15 5 8 1027.6 1025.8 0.0
31/08:30pm 15.4 14.8 13.4 88 1.2 ENE 9 13 5 7 1027.4 1025.6 0.0
31/08:00pm 15.8 16.3 14.0 89 1.0 ENE 4 6 2 3 1027.2 1025.3 0.0
31/07:30pm 15.6 15.3 13.4 87 1.3 ENE 7 11 4 6 1026.9 1025.1 0.0
31/07:00pm 16.3 14.5 13.2 82 1.8 ENE 15 24 8 13 1026.3 1024.5 0.0
31/06:30pm 17.6 16.5 13.1 75 2.6 NE 11 17 6 9 1026.2 1024.4 0.0
31/06:00pm 17.5 15.2 13.0 75 2.6 ENE 17 22 9 12 1026.0 1024.2 0.0
31/05:30pm 19.6 18.0 14.0 70 3.3 NE 15 20 8 11 1025.9 1024.0 0.0
31/05:00pm 18.4 15.5 12.2 67 3.5 ENE 19 24 10 13 1025.9 1024.0 0.0
31/04:30pm 20.9 18.5 12.6 59 4.8 NE 17 24 9 13 1026.1 1024.3 0.0
31/04:00pm 20.8 18.6 12.2 58 4.9 NE 15 20 8 11 1026.3 1024.5 0.0
31/03:30pm 20.9 18.5 12.8 60 4.7 ENE 17 24 9 13 1026.6 1024.8 0.0
31/03:00pm 19.3 17.9 12.3 64 4.0 NNE 11 15 6 8 1026.8 1025.0 0.0
31/02:30pm 19.1 16.5 12.1 64 4.0 E 17 20 9 11 1027.2 1025.3 0.0
31/02:00pm 21.0 19.8 13.9 64 4.2 ESE 13 20 7 11 1027.4 1025.6 0.0
31/01:30pm 20.7 18.7 12.7 60 4.7 E 15 22 8 12 1027.6 1025.8 0.0
31/01:00pm 21.2 18.9 13.1 60 4.7 ENE 17 26 9 14 1027.8 1026.0 0.0
31/12:30pm 19.5 17.9 11.5 60 4.5 E 11 17 6 9 1028.4 1026.6 0.0
31/12:00pm 20.3 19.9 13.0 63 4.2 E 7 15 4 8 1028.6 1026.8 0.0
31/11:30am 19.4 19.3 13.3 68 3.6 E 6 15 3 8 1029.2 1027.4 0.0
31/11:00am 19.1 17.9 13.9 72 3.1 ENE 13 20 7 11 1029.4 1027.6 0.0
31/10:30am 18.8 18.3 13.9 73 2.9 E 9 15 5 8 1029.3 1027.5 0.0
31/10:00am 15.0 15.5 12.9 87 1.2 E 2 4 1 2 1029.1 1027.3 0.0
31/09:30am 13.5 13.6 12.6 94 0.5 ESE 4 4 2 2 1029.0 1027.2 0.0
31/09:00am 12.5 13.2 12.3 99 0.1 CALM 0 2 0 1 1028.5 1026.7 1.6
31/08:30am 10.7 10.9 10.7 100 0.0 CALM 0 0 0 0 1028.2 1026.4 1.6
31/08:00am 9.3 7.8 9.3 100 0.0 SSE 7 9 4 5 1027.9 1026.1 1.6
31/07:30am 8.5 6.5 8.5 100 0.0 SSW 9 13 5 7 1027.6 1025.8 1.6
31/07:00am 8.5 6.0 8.4 99 0.0 SSW 11 13 6 7 1027.3 1025.4 1.6
31/06:30am 9.2 8.3 9.1 99 0.1 SSE 4 6 2 3 1026.6 1024.8 1.6
31/06:00am 8.5 8.1 8.4 99 0.0 CALM 0 0 0 0 1026.6 1024.8 1.6
31/05:30am 9.5 9.4 9.5 100 0.0 CALM 0 0 0 0 1026.6 1024.8 1.6
31/05:00am 9.3 8.8 9.2 99 0.1 S 2 4 1 2 1026.5 1024.7 1.6
31/04:30am 8.6 7.1 8.3 98 0.1 SSW 6 9 3 5 1026.5 1024.7 1.6
31/04:00am 9.1 8.8 8.6 97 0.3 CALM 0 0 0 0 1026.7 1024.9 1.4
31/03:30am 9.2 8.5 8.7 97 0.3 SSW 2 6 1 3 1026.8 1025.0 1.4
31/03:00am 9.4 7.8 8.9 97 0.3 SSW 7 9 4 5 1026.9 1025.1 1.4
31/02:30am 10.3 8.9 9.7 96 0.3 S 7 11 4 6 1027.0 1025.2 1.4
31/02:00am 10.9 11.0 10.1 95 0.4 CALM 0 0 0 0 1027.0 1025.2 1.4
31/01:30am 10.9 9.8 10.0 94 0.5 SE 6 7 3 4 1027.0 1025.2 1.4
31/01:00am 10.7 9.4 9.9 95 0.4 S 7 9 4 5 1027.2 1025.3 1.4
31/12:30am 11.1 10.3 9.7 91 0.7 SSE 4 6 2 3 1027.3 1025.4 1.4
31/12:00am 12.0 11.1 10.6 91 0.7 S 6 7 3 4 1027.4 1025.6 1.4
 
Date/Time
EDT
Temp
°C
App
Temp
°C
Dew
Point
Rel
Hum
%
Delta-T
°C
Wind Press
QNH
hPa
Press
MSL
hPa
Rain
since 9 am
mm
Dir
 
Spd
km/h
Gust
km/h
Spd
kts
Gust
kts
30/11:30pm 12.7 12.2 10.9 89 1.0 S 4 6 2 3 1027.5 1025.7 1.4
30/11:00pm 12.7 12.2 10.8 88 1.0 S 4 6 2 3 1027.4 1025.6 1.4
30/10:30pm 12.8 11.9 11.2 90 0.9 S 7 9 4 5 1027.2 1025.3 1.4
30/10:00pm 12.9 12.2 11.5 91 0.8 SSE 6 6 3 3 1027.0 1025.2 1.4
30/09:30pm 12.8 11.9 11.5 92 0.7 SSE 7 7 4 4 1026.9 1025.1 1.4
30/09:00pm 13.5 13.9 11.2 86 1.2 CALM 0 2 0 1 1026.8 1025.0 1.4
30/08:30pm 13.8 12.5 11.3 85 1.4 E 9 11 5 6 1026.6 1024.8 1.4
30/08:00pm 14.1 14.1 12.3 89 1.0 NE 4 6 2 3 1026.3 1024.5 1.4
30/07:30pm 14.2 13.7 12.8 91 0.8 ENE 7 9 4 5 1025.9 1024.0 1.4
30/07:00pm 14.6 14.2 13.0 90 0.9 ENE 7 11 4 6 1025.6 1023.7 1.2
30/06:30pm 15.6 16.0 13.6 88 1.2 NE 4 6 2 3 1025.3 1023.5 0.8
30/06:00pm 16.2 16.0 13.5 84 1.6 NE 7 9 4 5 1025.1 1023.3 0.2
30/05:30pm 17.8 16.6 12.9 73 2.8 ENE 11 13 6 7 1024.7 1022.9 0.0
30/05:00pm 18.3 17.0 11.1 63 4.0 E 9 13 5 7 1024.6 1022.8 0.0
30/04:30pm 18.9 17.7 9.4 54 5.2 ESE 6 7 3 4 1024.4 1022.5 0.0
30/04:00pm 19.0 17.4 8.9 52 5.4 SE 7 9 4 5 1024.3 1022.4 0.0
30/03:30pm 19.5 18.2 10.0 54 5.2 ESE 7 13 4 7 1024.3 1022.4 0.0
30/03:00pm 19.7 18.2 9.0 50 5.8 S 7 11 4 6 1024.2 1022.3 0.0
30/02:30pm 18.9 17.3 8.8 52 5.4 SSE 7 9 4 5 1024.4 1022.5 0.0
30/02:00pm 18.8 17.3 8.5 51 5.5 SE 6 9 3 5 1024.6 1022.8 0.0
30/01:30pm 18.7 17.3 8.7 52 5.4 SW 6 9 3 5 1024.9 1023.1 0.0
30/01:00pm 17.4 16.0 8.8 57 4.6 SW 6 7 3 4 1025.3 1023.5 0.0
30/12:30pm 15.6 15.2 9.9 69 3.1 NNE 2 4 1 2 1025.8 1023.9 0.0
30/12:00pm 13.4 13.6 10.4 82 1.6 CALM 0 0 0 0 1025.9 1024.0 0.0
30/11:30am 12.1 12.4 10.8 92 0.7 CALM 0 4 0 2 1026.2 1024.4 0.0
30/11:00am 10.7 10.7 9.8 94 0.5 CALM 0 4 0 2 1026.5 1024.7 0.0
30/10:30am 10.2 8.8 9.6 96 0.3 S 7 13 4 7 1026.4 1024.6 0.0
30/10:00am 9.0 8.3 8.4 96 0.3 SSW 2 4 1 2 1026.7 1024.9 0.0
30/09:30am 8.6 8.2 8.3 98 0.1 CALM 0 0 0 0 1026.8 1025.0 0.0
30/09:00am 7.9 7.4 7.8 99 0.0 CALM 0 0 0 0 1026.6 1024.8 0.0
30/08:30am 7.2 6.1 7.1 99 0.0 SSW 2 4 1 2 1026.4 1024.6 0.0
30/08:00am 6.6 5.4 6.5 99 0.0 SSW 2 4 1 2 1026.2 1024.4 0.0
30/07:30am 6.1 5.2 6.0 99 0.0 CALM 0 0 0 0 1026.0 1024.2 0.0
30/07:00am 6.1 4.4 6.0 99 0.0 SSW 4 6 2 3 1025.6 1023.7 0.0
30/06:30am 6.4 4.8 6.3 99 0.0 SSW 4 6 2 3 1025.1 1023.3 0.0
30/06:00am 6.0 4.3 5.9 99 0.0 SSE 4 7 2 4 1024.5 1022.6 0.0
30/05:30am 5.5 3.3 5.2 98 0.1 SSE 6 7 3 4 1024.2 1022.3 0.0
30/05:00am 5.6 3.8 5.3 98 0.1 SSE 4 6 2 3 1024.1 1022.2 0.0
30/04:30am 5.9 4.1 5.6 98 0.1 SSE 4 6 2 3 1024.0 1022.1 0.0
30/04:00am 6.6 5.8 6.5 99 0.0 CALM 0 0 0 0 1024.0 1022.1 0.0
30/03:30am 6.4 4.2 6.3 99 0.0 SSE 7 9 4 5 1024.0 1022.1 0.0
30/03:00am 6.3 4.2 5.9 97 0.2 SSE 6 7 3 4 1024.1 1022.2 0.0
30/02:30am 6.4 5.0 5.7 95 0.3 SSE 2 6 1 3 1024.3 1022.4 0.0
30/02:00am 7.6 7.0 7.2 97 0.2 CALM 0 0 0 0 1024.6 1022.8 0.0
30/01:30am 8.4 7.9 8.0 97 0.2 CALM 0 0 0 0 1024.5 1022.6 0.0
30/01:00am 8.8 8.4 8.2 96 0.3 CALM 0 0 0 0 1024.6 1022.8 0.0
30/12:30am 9.1 8.0 8.5 96 0.3 SSE 4 7 2 4 1024.5 1022.6 0.0
30/12:00am 8.9 7.4 8.3 96 0.3 SE 6 7 3 4 1024.5 1022.6 0.0
 
Date/Time
EDT
Temp
°C
App
Temp
°C
Dew
Point
Rel
Hum
%
Delta-T
°C
Wind Press
QNH
hPa
Press
MSL
hPa
Rain
since 9 am
mm
Dir
 
Spd
km/h
Gust
km/h
Spd
kts
Gust
kts
29/11:30pm 9.8 8.8 9.0 95 0.4 ESE 4 6 2 3 1024.7 1022.9 0.0
29/11:00pm 9.9 8.9 9.0 94 0.5 ESE 4 6 2 3 1024.8 1023.0 0.0
29/10:30pm 10.7 10.7 9.9 95 0.4 CALM 0 0 0 0 1025.0 1023.2 0.0
29/10:00pm 11.1 10.6 10.6 97 0.3 E 4 6 2 3 1024.9 1023.1 0.0
29/09:30pm 10.7 9.9 9.5 92 0.6 ESE 4 6 2 3 1024.5 1022.6 0.0
29/09:00pm 11.0 9.9 9.8 92 0.6 ESE 6 7 3 4 1024.2 1022.3 0.0
29/08:30pm 12.1 11.1 10.2 88 1.0 E 6 6 3 3 1023.9 1022.0 0.0
29/08:00pm 13.2 12.5 10.2 82 1.6 E 4 6 2 3 1023.6 1021.8 0.0
29/07:30pm 14.6 13.6 10.4 76 2.3 E 6 7 3 4 1023.3 1021.5 0.0
29/07:00pm 15.6 13.4 10.8 73 2.6 E 13 17 7 9 1022.6 1020.7 0.0
29/06:30pm 16.9 14.6 10.5 66 3.5 E 13 15 7 8 1022.4 1020.5 0.0
29/06:00pm 17.6 14.8 10.0 61 4.1 ENE 15 20 8 11 1022.2 1020.3 0.0
29/05:30pm 18.6 15.7 9.7 56 4.9 E 15 20 8 11 1022.2 1020.3 0.0
29/05:00pm 20.5 18.1 4.5 35 8.0 N 6 11 3 6 1021.8 1020.0 0.0
29/04:30pm 21.4 19.4 2.2 28 9.3 W 2 4 1 2 1021.9 1020.1 0.0
29/04:00pm 21.1 18.0 1.4 27 9.3 W 7 11 4 6 1022.1 1020.2 0.0
29/03:30pm 21.5 18.5 2.2 28 9.3 W 7 13 4 7 1022.3 1020.4 0.0

Other Formats:

Comma delimited format used in spreadsheet applications
http://www.bom.gov.au/fwo/IDN60801/IDN60801.94943.axf

JavaScript Object Notation format (JSON) in row-major order
http://www.bom.gov.au/fwo/IDN60801/IDN60801.94943.json